Time;durP1;ratioP1;P1;durP2;ratioP2;P2;SDS_P1;SDS_P2;PMS_P1;PMS_P2;Temp;Humidity;BMP_temperature;BMP_pressure;BME280_temperature;BME280_humidity;BME280_pressure;Samples;Min_cycle;Max_cycle;Signal;HPM_P1;HPM_P2
2023/12/09 00:02:03;;;;;;;23.65;7.22;;;;;;;6.17;100.00;100960.38;5031106;28;20143;-70
2023/12/09 00:04:30;;;;;;;25.52;7.47;;;;;;;6.16;100.00;100963.03;5026726;28;20167;-70
2023/12/09 00:06:57;;;;;;;25.05;7.20;;;;;;;6.19;100.00;100965.63;5065032;28;20499;-70
2023/12/09 00:09:25;;;;;;;34.53;7.78;;;;;;;6.18;100.00;100958.66;5042565;28;20055;-70
2023/12/09 00:11:52;;;;;;;26.85;7.60;;;;;;;6.19;100.00;100961.22;5029997;28;20497;-70
2023/12/09 00:14:20;;;;;;;27.00;8.15;;;;;;;6.20;100.00;100959.50;5032161;28;20046;-70
2023/12/09 00:16:47;;;;;;;29.65;9.05;;;;;;;6.22;100.00;100958.59;5044397;28;20523;-70
2023/12/09 00:19:14;;;;;;;25.73;9.15;;;;;;;6.22;100.00;100955.97;5038141;28;20056;-70
2023/12/09 00:21:41;;;;;;;33.17;10.20;;;;;;;6.24;100.00;100957.72;5031227;28;20489;-70
2023/12/09 00:24:08;;;;;;;25.15;8.63;;;;;;;6.24;100.00;100961.19;5030123;28;20041;-70
2023/12/09 00:26:36;;;;;;;27.10;8.13;;;;;;;6.27;100.00;100960.28;5050219;28;20051;-70
2023/12/09 00:29:06;;;;;;;24.92;8.00;;;;;;;6.27;100.00;100952.44;5046486;28;20049;-70
2023/12/09 00:31:33;;;;;;;34.95;8.45;;;;;;;6.29;100.00;100958.53;5059716;28;20340;-70
2023/12/09 00:34:00;;;;;;;31.30;9.88;;;;;;;6.31;100.00;100959.38;5024995;28;20131;-70
2023/12/09 00:36:27;;;;;;;27.85;7.88;;;;;;;6.31;100.00;100955.00;5050976;28;20068;-70
2023/12/09 00:38:54;;;;;;;22.15;7.25;;;;;;;6.33;100.00;100962.84;5047951;28;20297;-70
2023/12/09 00:41:21;;;;;;;31.95;8.82;;;;;;;6.33;100.00;100965.47;5031309;28;20087;-70
2023/12/09 00:43:48;;;;;;;32.63;8.80;;;;;;;6.34;100.00;100968.06;5030093;28;20056;-71
2023/12/09 00:46:15;;;;;;;28.20;7.40;;;;;;;6.35;100.00;100961.09;5044786;28;20048;-70
2023/12/09 00:48:43;;;;;;;33.78;8.82;;;;;;;6.34;100.00;100968.06;5038542;28;20077;-70
2023/12/09 00:51:11;;;;;;;34.97;10.57;;;;;;;6.33;100.00;100966.31;5024924;28;20219;-70
2023/12/09 00:53:38;;;;;;;26.23;7.68;;;;;;;6.33;100.00;100975.94;5032183;28;21386;-71
2023/12/09 00:56:06;;;;;;;30.52;8.35;;;;;;;6.33;100.00;100982.03;5046434;28;20050;-71
2023/12/09 00:58:33;;;;;;;26.38;6.97;;;;;;;6.30;100.00;100969.00;4992917;28;20049;-71
2023/12/09 01:01:00;;;;;;;21.88;6.78;;;;;;;6.33;100.00;100971.56;5042360;28;20037;-71
2023/12/09 01:03:27;;;;;;;29.10;7.13;;;;;;;6.32;100.00;100971.59;5035374;28;20053;-71
2023/12/09 01:05:54;;;;;;;19.45;6.72;;;;;;;6.31;100.00;100975.09;5030453;28;20144;-71
2023/12/09 01:08:21;;;;;;;24.67;7.03;;;;;;;6.29;100.00;100976.84;5028727;28;20124;-71
2023/12/09 01:10:48;;;;;;;26.80;6.60;;;;;;;6.28;100.00;100968.13;5030016;28;20046;-71
2023/12/09 01:13:15;;;;;;;26.33;7.65;;;;;;;6.29;100.00;100966.38;5028525;28;20118;-71
2023/12/09 01:15:42;;;;;;;28.10;6.57;;;;;;;6.32;100.00;100955.88;5039705;28;20041;-71
2023/12/09 01:18:09;;;;;;;26.88;6.90;;;;;;;6.34;100.00;100951.50;5027466;28;20515;-71
2023/12/09 01:20:36;;;;;;;25.85;7.75;;;;;;;6.36;100.00;100955.81;5027787;28;20120;-70
2023/12/09 01:23:03;;;;;;;24.65;6.88;;;;;;;6.37;100.00;100952.31;5043801;28;20041;-71
2023/12/09 01:25:30;;;;;;;23.77;7.00;;;;;;;6.36;100.00;100947.09;5023747;28;20432;-71
2023/12/09 01:27:57;;;;;;;27.30;7.40;;;;;;;6.33;100.00;100953.22;5054332;28;20505;-71
2023/12/09 01:30:24;;;;;;;33.30;7.68;;;;;;;6.29;100.00;100948.94;5010112;28;20068;-71
2023/12/09 01:32:51;;;;;;;24.27;6.72;;;;;;;6.25;100.00;100957.69;5011635;28;20038;-71
2023/12/09 01:35:18;;;;;;;27.48;6.65;;;;;;;6.19;100.00;100960.38;5029569;28;20099;-71
2023/12/09 01:37:45;;;;;;;32.53;7.43;;;;;;;6.15;100.00;100959.56;5060511;28;20483;-71
2023/12/09 01:40:16;;;;;;;27.50;7.43;;;;;;;6.12;100.00;100959.56;5047745;28;20060;-71
2023/12/09 01:42:43;;;;;;;27.10;8.02;;;;;;;6.11;100.00;100951.72;5049441;28;20040;-71
2023/12/09 01:45:10;;;;;;;22.67;7.15;;;;;;;6.10;100.00;100953.47;5028572;28;20037;-70
2023/12/09 01:47:39;;;;;;;32.53;7.75;;;;;;;6.09;100.00;100951.75;5043250;28;20045;-71
2023/12/09 01:50:07;;;;;;;29.20;7.68;;;;;;;6.05;100.00;100964.00;5024141;28;20101;-70
2023/12/09 01:52:36;;;;;;;25.23;7.35;;;;;;;6.04;100.00;100950.94;5020476;28;20047;-70
2023/12/09 01:55:03;;;;;;;32.00;7.90;;;;;;;6.02;100.00;100957.94;5033114;28;20041;-71
2023/12/09 01:57:31;;;;;;;26.20;7.30;;;;;;;5.98;100.00;100950.94;5032248;28;20501;-70
2023/12/09 01:59:58;;;;;;;25.45;7.68;;;;;;;5.92;100.00;100951.88;5031582;28;20103;-71
2023/12/09 02:02:25;;;;;;;25.55;7.25;;;;;;;5.87;100.00;100951.06;5029865;28;20041;-71
2023/12/09 02:04:55;;;;;;;27.85;7.10;;;;;;;5.82;100.00;100958.94;5027872;28;20040;-71
2023/12/09 02:07:22;;;;;;;27.98;7.88;;;;;;;5.79;100.00;100945.03;5038026;28;20041;-70
2023/12/09 02:09:49;;;;;;;24.42;7.43;;;;;;;5.75;100.00;100938.94;5035501;28;20429;-70
2023/12/09 02:12:43;;;;;;;22.10;7.35;;;;;;;5.72;100.00;100933.75;5029936;28;20046;-70
2023/12/09 02:15:25;;;;;;;29.48;8.25;;;;;;;5.71;100.00;100929.38;5028371;28;20049;-71
2023/12/09 02:18:07;;;;;;;27.15;7.53;;;;;;;5.69;100.00;100926.78;5043773;28;20072;-70
2023/12/09 02:20:34;;;;;;;26.30;7.25;;;;;;;5.69;100.00;100925.91;5039006;28;20053;-70
2023/12/09 02:23:11;;;;;;;24.13;8.20;;;;;;;5.66;100.00;100916.34;5045584;28;20055;-70
2023/12/09 02:25:40;;;;;;;24.67;7.80;;;;;;;5.62;100.00;100916.38;5027467;28;20045;-70
2023/12/09 02:28:29;;;;;;;25.85;8.52;;;;;;;5.59;100.00;100912.06;5031554;28;20041;-70
2023/12/09 02:31:13;;;;;;;32.28;8.05;;;;;;;5.53;100.00;100910.38;5027855;28;20506;-70
2023/12/09 02:33:45;;;;;;;40.75;8.52;;;;;;;5.49;100.00;100902.56;5030995;28;20127;-70
2023/12/09 02:36:22;;;;;;;28.45;8.38;;;;;;;5.45;100.00;100912.16;5048385;28;20075;-70
2023/12/09 02:38:53;;;;;;;32.97;7.93;;;;;;;5.40;100.00;100914.81;5028244;28;20060;-70
2023/12/09 02:41:21;;;;;;;27.02;8.55;;;;;;;5.36;100.00;100915.72;5024919;28;20131;-70
2023/12/09 02:43:49;;;;;;;29.30;8.43;;;;;;;5.36;100.00;100914.84;5021399;28;20121;-70
2023/12/09 02:46:16;;;;;;;37.58;8.75;;;;;;;5.33;100.00;100917.50;5023482;28;20142;-70
2023/12/09 02:48:43;;;;;;;33.47;8.75;;;;;;;5.29;100.00;100924.50;5037410;28;20056;-71
2023/12/09 02:51:10;;;;;;;36.03;8.55;;;;;;;5.27;100.00;100916.66;5029464;28;20193;-71
2023/12/09 02:53:37;;;;;;;28.58;8.02;;;;;;;5.23;100.00;100916.69;5028062;28;20041;-71
2023/12/09 02:56:04;;;;;;;32.08;7.60;;;;;;;5.21;100.00;100894.91;5027112;28;20456;-71
2023/12/09 02:58:31;;;;;;;31.50;8.15;;;;;;;5.17;100.00;100903.66;5034138;28;20120;-71
2023/12/09 03:00:58;;;;;;;31.50;8.25;;;;;;;5.15;100.00;100895.81;5018760;28;20032;-70
2023/12/09 03:03:26;;;;;;;22.23;7.60;;;;;;;5.13;100.00;100894.97;5025691;28;20041;-70
2023/12/09 03:05:53;;;;;;;28.63;8.23;;;;;;;5.10;100.00;100882.78;5031325;28;20044;-71
2023/12/09 03:08:20;;;;;;;32.90;8.70;;;;;;;5.09;100.00;100885.41;5031436;28;20045;-70
2023/12/09 03:10:47;;;;;;;36.25;8.82;;;;;;;5.06;100.00;100890.66;5033675;28;20043;-71
2023/12/09 03:13:14;;;;;;;34.42;8.65;;;;;;;5.02;100.00;100884.59;5025341;28;20037;-71
2023/12/09 03:15:41;;;;;;;35.00;8.90;;;;;;;5.01;100.00;100882.84;5024866;28;20139;-71
2023/12/09 03:18:08;;;;;;;32.80;8.63;;;;;;;5.01;100.00;100884.59;5025589;28;20041;-70
2023/12/09 03:20:35;;;;;;;38.65;9.57;;;;;;;4.98;100.00;100881.13;5027385;28;20711;-70
2023/12/09 03:23:02;;;;;;;33.92;8.90;;;;;;;4.96;100.00;100872.44;5029851;28;20030;-71
2023/12/09 03:25:29;;;;;;;39.20;9.80;;;;;;;4.94;100.00;100855.88;5036236;28;20405;-70
2023/12/09 03:27:56;;;;;;;44.35;9.43;;;;;;;4.95;100.00;100862.00;5006663;28;20460;-70
2023/12/09 03:30:26;;;;;;;32.50;9.73;;;;;;;4.93;100.00;100861.13;5042820;28;20055;-70
2023/12/09 03:32:53;;;;;;;26.40;9.05;;;;;;;4.93;100.00;100871.59;5027024;28;20497;-70
2023/12/09 03:35:21;;;;;;;35.85;9.35;;;;;;;4.91;100.00;100862.88;5042618;28;20049;-70
2023/12/09 03:37:48;;;;;;;30.48;9.15;;;;;;;4.92;100.00;100868.13;5026211;28;20052;-71
2023/12/09 03:40:15;;;;;;;34.90;9.63;;;;;;;4.97;100.00;100866.31;5032236;28;20040;-70
2023/12/09 03:42:42;;;;;;;38.63;10.40;;;;;;;5.02;100.00;100874.13;5023544;28;20057;-71
2023/12/09 03:45:10;;;;;;;30.58;9.80;;;;;;;5.09;100.00;100874.97;5025663;28;20069;-71
2023/12/09 03:47:37;;;;;;;36.33;10.40;;;;;;;5.15;100.00;100848.78;5048237;28;20556;-72
2023/12/09 03:50:05;;;;;;;41.13;9.57;;;;;;;5.19;100.00;100863.56;5032626;28;20124;-71
2023/12/09 03:52:32;;;;;;;28.85;9.68;;;;;;;5.19;100.00;100855.72;5016652;28;20490;-72
2023/12/09 03:54:59;;;;;;;24.52;8.65;;;;;;;5.19;100.00;100868.78;5010292;28;20041;-72
2023/12/09 03:57:26;;;;;;;31.48;9.77;;;;;;;5.14;100.00;100862.72;5024578;28;20497;-72
2023/12/09 03:59:53;;;;;;;29.77;8.82;;;;;;;5.11;100.00;100867.97;5019867;28;20506;-72
2023/12/09 04:02:20;;;;;;;29.20;9.48;;;;;;;5.09;100.00;100862.75;5024695;28;20076;-71
2023/12/09 04:04:47;;;;;;;36.95;9.60;;;;;;;5.09;100.00;100854.91;5041486;28;20056;-72
2023/12/09 04:07:14;;;;;;;31.40;9.15;;;;;;;5.09;100.00;100859.28;5026914;28;20049;-71
2023/12/09 04:09:41;;;;;;;31.02;8.48;;;;;;;5.12;100.00;100856.66;5006026;28;20399;-71
2023/12/09 04:12:08;;;;;;;30.35;8.13;;;;;;;5.18;100.00;100863.59;5025664;28;20046;-71
2023/12/09 04:14:35;;;;;;;36.58;9.15;;;;;;;5.20;100.00;100857.47;5043501;28;20158;-71
2023/12/09 04:17:02;;;;;;;34.53;9.30;;;;;;;5.22;100.00;100847.88;5045059;28;20405;-71
2023/12/09 04:19:29;;;;;;;27.98;8.75;;;;;;;5.21;100.00;100843.50;5033760;28;20177;-71
2023/12/09 04:21:57;;;;;;;34.75;8.70;;;;;;;5.19;100.00;100832.19;5022976;28;20057;-71
2023/12/09 04:24:24;;;;;;;31.13;8.25;;;;;;;5.15;100.00;100827.84;5021632;28;20092;-71
2023/12/09 04:26:51;;;;;;;33.33;8.10;;;;;;;5.10;100.00;100825.28;5008508;28;20089;-72
2023/12/09 04:29:18;;;;;;;29.25;8.45;;;;;;;5.04;100.00;100812.28;5035567;28;20095;-71
2023/12/09 04:31:45;;;;;;;30.05;8.43;;;;;;;4.98;100.00;100814.94;5040348;28;20628;-71
2023/12/09 04:34:12;;;;;;;33.33;8.80;;;;;;;4.95;100.00;100807.97;5010599;28;20070;-71
2023/12/09 04:36:39;;;;;;;29.98;8.73;;;;;;;4.91;100.00;100810.63;5023609;28;20103;-71
2023/12/09 04:39:07;;;;;;;27.67;8.10;;;;;;;4.88;100.00;100810.66;5026724;28;20033;-71
2023/12/09 04:41:34;;;;;;;31.35;8.48;;;;;;;4.85;100.00;100808.94;5039268;28;20041;-71
2023/12/09 04:44:01;;;;;;;33.42;8.43;;;;;;;4.83;100.00;100805.47;5022778;28;20077;-71
2023/12/09 04:46:29;;;;;;;30.85;8.75;;;;;;;4.82;100.00;100812.44;5009894;28;20050;-71
2023/12/09 04:48:57;;;;;;;30.65;8.90;;;;;;;4.80;100.00;100814.19;5025424;28;20041;-70
2023/12/09 04:51:24;;;;;;;37.58;8.15;;;;;;;4.79;100.00;100807.22;5027548;28;20520;-71
2023/12/09 04:53:51;;;;;;;24.42;7.55;;;;;;;4.78;100.00;100809.84;5034518;28;20687;-71
2023/12/09 04:56:19;;;;;;;31.90;7.78;;;;;;;4.76;100.00;100799.44;5035758;28;20107;-71
2023/12/09 04:58:46;;;;;;;31.88;7.57;;;;;;;4.77;100.00;100806.38;5028366;28;20045;-71
2023/12/09 05:01:13;;;;;;;29.48;7.82;;;;;;;4.78;100.00;100802.88;5027355;28;20116;-71
2023/12/09 05:03:41;;;;;;;26.35;7.95;;;;;;;4.81;100.00;100802.84;5043775;28;20045;-71
2023/12/09 05:06:08;;;;;;;24.55;7.18;;;;;;;4.81;100.00;100787.19;5044369;28;20049;-71
2023/12/09 05:08:36;;;;;;;22.40;7.07;;;;;;;4.81;100.00;100789.78;5023128;28;20046;-71
2023/12/09 05:11:03;;;;;;;32.47;7.63;;;;;;;4.82;100.00;100790.69;5028511;28;20049;-71
2023/12/09 05:13:30;;;;;;;24.30;8.00;;;;;;;4.81;100.00;100786.34;5029992;28;20048;-71
2023/12/09 05:15:57;;;;;;;26.60;7.10;;;;;;;4.81;100.00;100787.19;5044793;28;20048;-72
2023/12/09 05:18:24;;;;;;;21.98;7.43;;;;;;;4.81;100.00;100784.56;5033632;28;20053;-71
2023/12/09 05:20:51;;;;;;;25.67;7.32;;;;;;;4.82;100.00;100778.47;5028547;28;20045;-72
2023/12/09 05:23:18;;;;;;;26.35;7.60;;;;;;;4.81;100.00;100771.50;5028864;28;20575;-71
2023/12/09 05:25:46;;;;;;;22.88;6.88;;;;;;;4.81;100.00;100766.28;5036853;28;20078;-70
2023/12/09 05:28:13;;;;;;;24.52;5.90;;;;;;;4.82;100.00;100767.19;5026925;28;20084;-71
2023/12/09 05:30:41;;;;;;;24.42;6.57;;;;;;;4.82;100.00;100765.41;5028507;28;20059;-70
2023/12/09 05:33:08;;;;;;;23.27;6.10;;;;;;;4.82;100.00;100765.41;5029683;28;20618;-70
2023/12/09 05:35:36;;;;;;;26.58;6.63;;;;;;;4.81;100.00;100778.50;5028821;28;20065;-71
2023/12/09 05:38:03;;;;;;;23.20;6.43;;;;;;;4.81;100.00;100774.13;5026871;28;20080;-70
2023/12/09 05:40:30;;;;;;;20.20;5.82;;;;;;;4.81;100.00;100776.75;5035828;28;20052;-71
2023/12/09 05:43:00;;;;;;;23.05;6.50;;;;;;;4.81;100.00;100766.28;5032955;28;20069;-70
2023/12/09 05:45:27;;;;;;;26.40;7.00;;;;;;;4.81;100.00;100770.66;5029185;28;20041;-71
2023/12/09 05:47:55;;;;;;;26.27;6.70;;;;;;;4.80;100.00;100759.31;5036996;28;20049;-71
2023/12/09 05:50:22;;;;;;;30.17;7.63;;;;;;;4.79;100.00;100754.97;5020227;28;20124;-70
2023/12/09 05:52:49;;;;;;;27.52;6.53;;;;;;;4.79;100.00;100756.75;5031192;28;20056;-70
2023/12/09 05:55:17;;;;;;;24.67;7.20;;;;;;;4.76;100.00;100755.03;5028475;28;20417;-71
2023/12/09 05:57:44;;;;;;;30.27;6.57;;;;;;;4.76;100.00;100751.53;5027540;28;20132;-71
2023/12/09 06:00:12;;;;;;;30.33;6.80;;;;;;;4.74;100.00;100748.06;5026909;28;20045;-71
2023/12/09 06:02:41;;;;;;;30.35;6.97;;;;;;;4.71;100.00;100751.56;5032829;28;20088;-72
2023/12/09 06:05:10;;;;;;;32.75;6.70;;;;;;;4.69;100.00;100755.06;5033332;28;20440;-71
2023/12/09 06:07:38;;;;;;;30.65;6.30;;;;;;;4.68;100.00;100753.34;5017024;28;20687;-73
2023/12/09 06:10:06;;;;;;;22.85;6.30;;;;;;;4.65;100.00;100754.22;5025973;28;20049;-71
2023/12/09 06:12:33;;;;;;;23.65;6.65;;;;;;;4.61;100.00;100758.63;5026585;28;20049;-71
2023/12/09 06:15:00;;;;;;;27.25;6.53;;;;;;;4.58;100.00;100753.41;5036654;28;20054;-71
2023/12/09 06:17:27;;;;;;;24.77;6.38;;;;;;;4.56;100.00;100744.72;5049040;28;20049;-71
2023/12/09 06:19:55;;;;;;;21.60;6.32;;;;;;;4.54;100.00;100732.56;5031659;28;20065;-71
2023/12/09 06:22:22;;;;;;;22.15;6.20;;;;;;;4.53;100.00;100738.66;5024524;28;20513;-71
2023/12/09 06:24:51;;;;;;;28.40;6.75;;;;;;;4.51;100.00;100730.84;5048848;28;20076;-71
2023/12/09 06:27:18;;;;;;;21.58;6.20;;;;;;;4.49;100.00;100728.22;5027856;28;20099;-71
2023/12/09 06:29:46;;;;;;;29.27;6.40;;;;;;;4.49;100.00;100722.13;5027537;28;20052;-71
2023/12/09 06:32:15;;;;;;;27.50;6.80;;;;;;;4.49;100.00;100716.91;5046807;28;20041;-71
2023/12/09 06:34:42;;;;;;;21.80;5.65;;;;;;;4.49;100.00;100719.53;5026326;28;20524;-71
2023/12/09 06:37:09;;;;;;;23.73;5.90;;;;;;;4.50;100.00;100713.44;5026546;28;20103;-71
2023/12/09 06:39:36;;;;;;;20.98;5.55;;;;;;;4.51;100.00;100717.78;5031568;28;20129;-71
2023/12/09 06:42:05;;;;;;;25.83;5.90;;;;;;;4.51;100.00;100712.56;5025528;28;20087;-71
2023/12/09 06:44:32;;;;;;;17.92;5.10;;;;;;;4.53;100.00;100713.41;5026145;28;20041;-71
2023/12/09 06:46:59;;;;;;;19.48;5.10;;;;;;;4.54;100.00;100709.91;5026407;28;20560;-70
2023/12/09 06:49:26;;;;;;;22.15;5.45;;;;;;;4.57;100.00;100699.44;5027955;28;20137;-71
2023/12/09 06:51:54;;;;;;;26.85;5.40;;;;;;;4.60;100.00;100695.94;5027717;28;20037;-71
2023/12/09 06:54:21;;;;;;;24.77;6.00;;;;;;;4.64;100.00;100689.81;5026546;28;20088;-70
2023/12/09 06:56:48;;;;;;;26.35;5.78;;;;;;;4.69;100.00;100689.78;5027067;28;20128;-70
2023/12/09 06:59:15;;;;;;;22.80;5.43;;;;;;;4.72;100.00;100685.41;5066419;28;20599;-71
2023/12/09 07:01:43;;;;;;;22.95;5.45;;;;;;;4.75;100.00;100679.28;5044028;28;20053;-70
2023/12/09 07:04:12;;;;;;;22.52;5.57;;;;;;;4.76;100.00;100671.44;5026852;28;20095;-71
2023/12/09 07:06:39;;;;;;;26.45;5.57;;;;;;;4.82;100.00;100665.31;5021098;28;20453;-71
2023/12/09 07:09:08;;;;;;;20.00;5.20;;;;;;;4.85;100.00;100667.00;5038288;28;20115;-72
2023/12/09 07:11:35;;;;;;;24.77;4.85;;;;;;;4.88;100.00;100660.00;5039829;28;20037;-72
2023/12/09 07:14:02;;;;;;;22.83;4.47;;;;;;;4.91;100.00;100652.16;5028694;28;20548;-71
2023/12/09 07:16:30;;;;;;;19.73;4.32;;;;;;;4.93;100.00;100645.16;5027437;28;20140;-72
2023/12/09 07:19:00;;;;;;;19.17;4.70;;;;;;;4.97;100.00;100638.16;5028151;28;20054;-73
2023/12/09 07:21:28;;;;;;;18.30;4.60;;;;;;;5.00;100.00;100627.66;5025369;28;20045;-73
2023/12/09 07:23:55;;;;;;;17.15;4.00;;;;;;;5.02;100.00;100617.22;5025292;28;20042;-73
2023/12/09 07:26:23;;;;;;;15.50;3.60;;;;;;;5.02;100.00;100615.44;5047276;28;20124;-71
2023/12/09 07:28:50;;;;;;;19.20;3.90;;;;;;;5.06;100.00;100609.31;5022066;28;20052;-70
2023/12/09 07:31:17;;;;;;;18.25;3.53;;;;;;;5.08;100.00;100612.78;5031216;28;20401;-72
2023/12/09 07:33:44;;;;;;;16.92;3.97;;;;;;;5.12;100.00;100606.63;5025982;28;20037;-72
2023/12/09 07:36:11;;;;;;;19.83;4.20;;;;;;;5.16;100.00;100607.44;5020543;28;20410;-72
2023/12/09 07:38:38;;;;;;;15.63;4.13;;;;;;;5.18;100.00;100605.69;5027955;28;20037;-72
2023/12/09 07:41:05;;;;;;;18.02;3.65;;;;;;;5.20;100.00;100592.59;5025382;28;20041;-71
2023/12/09 07:43:33;;;;;;;16.02;3.80;;;;;;;5.23;100.00;100603.03;5026290;28;20044;-69
2023/12/09 07:46:01;;;;;;;16.23;3.65;;;;;;;5.26;100.00;100609.06;5023813;28;20531;-72
2023/12/09 07:48:28;;;;;;;18.50;3.50;;;;;;;5.29;100.00;100603.81;5025492;28;20037;-71
2023/12/09 07:50:56;;;;;;;16.08;5.88;;;;;;;5.34;100.00;100595.06;5024930;28;20052;-72
2023/12/09 07:53:23;;;;;;;18.92;4.00;;;;;;;5.44;100.00;100581.84;5040538;28;20137;-71
2023/12/09 07:55:50;;;;;;;18.73;4.93;;;;;;;5.56;100.00;100585.19;5027995;28;20575;-69
2023/12/09 07:58:17;;;;;;;18.70;4.20;;;;;;;5.65;100.00;100577.19;5018952;28;20140;-75
2023/12/09 08:00:44;;;;;;;20.83;7.72;;;;;;;5.84;100.00;100558.63;5029131;28;20049;-79
2023/12/09 08:03:11;;;;;;;17.20;5.70;;;;;;;6.02;100.00;100562.75;5030669;28;20452;-72
2023/12/09 08:05:40;;;;;;;14.90;5.32;;;;;;;6.13;100.00;100546.84;5030900;28;20135;-70
2023/12/09 08:08:09;;;;;;;17.00;7.18;;;;;;;6.15;100.00;100550.31;5028594;28;20048;-71
2023/12/09 08:10:36;;;;;;;20.75;8.73;;;;;;;6.16;100.00;100558.13;5028816;28;20076;-70
2023/12/09 08:13:03;;;;;;;15.98;5.78;;;;;;;6.18;100.00;100551.13;5031294;28;20041;-71
2023/12/09 08:15:30;;;;;;;12.57;4.00;;;;;;;6.22;100.00;100552.81;5037040;28;20394;-71
2023/12/09 08:17:57;;;;;;;13.65;4.70;;;;;;;6.28;100.00;100562.31;5031178;28;20117;-71
2023/12/09 08:20:24;;;;;;;14.07;4.13;;;;;;;6.30;100.00;100559.66;5029348;28;20060;-71
2023/12/09 08:22:52;;;;;;;18.65;4.10;;;;;;;6.31;100.00;100571.88;5040684;28;20246;-71
2023/12/09 08:25:19;;;;;;;13.60;3.60;;;;;;;6.33;100.00;100567.47;5040818;28;20073;-71
2023/12/09 08:27:46;;;;;;;13.48;3.72;;;;;;;6.35;100.00;100563.09;5030093;28;20037;-73
2023/12/09 08:30:14;;;;;;;16.42;5.50;;;;;;;6.39;100.00;100563.88;5025865;28;20144;-74
2023/12/09 08:32:43;;;;;;;15.32;4.43;;;;;;;6.40;100.00;100550.75;5026800;28;20124;-74
2023/12/09 08:35:12;;;;;;;13.77;3.05;;;;;;;6.43;100.00;100548.09;5033947;28;20037;-74
2023/12/09 08:37:40;;;;;;;10.50;2.90;;;;;;;6.46;100.00;100557.66;5029081;28;20045;-71
2023/12/09 08:40:11;;;;;;;11.40;3.10;;;;;;;6.48;100.00;100551.47;5041817;28;20129;-70
2023/12/09 08:42:42;;;;;;;11.30;3.33;;;;;;;6.52;100.00;100552.28;5017054;28;20048;-70
2023/12/09 08:45:13;;;;;;;11.90;3.38;;;;;;;6.56;100.00;100545.25;5027416;28;20532;-70
2023/12/09 08:47:41;;;;;;;9.98;2.78;;;;;;;6.61;100.00;100540.78;5029771;28;20041;-70
2023/12/09 08:50:13;;;;;;;10.75;2.83;;;;;;;6.66;100.00;100537.19;5036892;28;20041;-69
2023/12/09 08:52:52;;;;;;;10.63;2.42;;;;;;;6.74;100.00;100529.19;5018581;28;20553;-75
2023/12/09 08:55:21;;;;;;;10.75;2.90;;;;;;;6.76;100.00;100527.41;5024864;28;20128;-74
2023/12/09 08:57:51;;;;;;;11.00;2.70;;;;;;;6.79;100.00;100524.72;5032426;28;20128;-74
2023/12/09 09:00:22;;;;;;;9.57;2.50;;;;;;;6.82;100.00;100518.53;5043794;28;20045;-74
2023/12/09 09:02:50;;;;;;;8.43;2.40;;;;;;;6.84;100.00;100517.63;5039309;28;20069;-74
2023/12/09 09:05:22;;;;;;;11.13;2.42;;;;;;;6.88;100.00;100517.56;5027244;28;20100;-72
2023/12/09 09:07:50;;;;;;;12.43;3.15;;;;;;;6.89;100.00;100514.91;5027351;28;20041;-73
2023/12/09 09:10:18;;;;;;;10.70;2.63;;;;;;;6.92;100.00;100511.38;5043446;28;20033;-73
2023/12/09 09:12:47;;;;;;;10.82;2.63;;;;;;;6.95;100.00;100508.69;5008569;28;20413;-74
2023/12/09 09:15:16;;;;;;;23.08;2.97;;;;;;;6.96;100.00;100508.66;5029892;28;20055;-74
2023/12/09 09:17:44;;;;;;;11.43;3.17;;;;;;;6.98;100.00;100490.25;5027293;28;20452;-74
2023/12/09 09:20:12;;;;;;;8.20;2.80;;;;;;;7.01;100.00;100481.50;4994726;28;21800;-74
2023/12/09 09:22:41;;;;;;;52.10;23.65;;;;;;;7.06;100.00;100464.78;5026901;28;20524;-74
2023/12/09 09:25:15;;;;;;;11.65;4.07;;;;;;;7.12;100.00;100451.53;5029648;28;20091;-74
2023/12/09 09:27:43;;;;;;;13.43;4.38;;;;;;;7.18;100.00;100450.53;5019900;28;20033;-74
2023/12/09 09:30:13;;;;;;;14.38;6.03;;;;;;;7.20;100.00;100429.50;5033265;28;20115;-74
2023/12/09 09:32:41;;;;;;;10.18;3.92;;;;;;;7.22;100.00;100425.97;5032211;28;20568;-74
2023/12/09 09:35:09;;;;;;;32.13;21.02;;;;;;;7.19;100.00;100419.91;5025642;28;20041;-74
2023/12/09 09:37:38;;;;;;;19.75;9.75;;;;;;;7.18;100.00;100413.81;5029421;28;20758;-74
2023/12/09 09:40:07;;;;;;;12.50;3.80;;;;;;;7.19;100.00;100409.44;5042581;28;20064;-74
2023/12/09 09:43:09;;;;;;;17.98;10.77;;;;;;;7.18;100.00;100405.97;5027540;28;20563;-74
2023/12/09 09:45:38;;;;;;;25.15;12.57;;;;;;;7.16;100.00;100402.50;5029702;28;20033;-74
2023/12/09 09:48:12;;;;;;;15.35;4.45;;;;;;;7.17;100.00;100400.75;5027091;28;20041;-74
2023/12/09 09:50:56;;;;;;;14.90;5.78;;;;;;;7.13;100.00;100398.19;5038249;28;20049;-73
2023/12/09 09:53:45;;;;;;;18.98;9.18;;;;;;;7.11;100.00;100391.28;5036219;28;20053;-72
2023/12/09 09:56:13;;;;;;;14.05;4.55;;;;;;;7.09;100.00;100390.44;5025674;28;20049;-72
2023/12/09 09:58:42;;;;;;;16.25;7.45;;;;;;;7.09;100.00;100385.19;5028616;28;20045;-72
2023/12/09 10:01:12;;;;;;;12.25;3.70;;;;;;;7.08;100.00;100371.22;5035219;28;20139;-72
2023/12/09 10:03:40;;;;;;;10.52;3.33;;;;;;;7.09;100.00;100366.84;5029996;28;20042;-72
2023/12/09 10:06:10;;;;;;;18.60;8.73;;;;;;;7.11;100.00;100363.28;5044908;28;20049;-72
2023/12/09 10:08:38;;;;;;;9.82;3.95;;;;;;;7.11;100.00;100363.28;5064782;28;20488;-72
2023/12/09 10:11:05;;;;;;;18.08;4.15;;;;;;;7.14;100.00;100350.13;5040115;28;20041;-72
2023/12/09 10:13:34;;;;;;;12.38;4.60;;;;;;;7.18;100.00;100335.16;5028351;28;20088;-72
2023/12/09 10:16:03;;;;;;;17.10;8.80;;;;;;;7.20;100.00;100332.50;5027689;28;20421;-71
2023/12/09 10:18:31;;;;;;;28.85;17.15;;;;;;;7.21;100.00;100324.63;5028191;28;20072;-72
2023/12/09 10:20:59;;;;;;;13.07;4.10;;;;;;;7.24;100.00;100314.03;5027930;28;20051;-72
2023/12/09 10:23:27;;;;;;;14.70;5.47;;;;;;;7.26;100.00;100304.38;5043777;28;20444;-72
2023/12/09 10:25:57;;;;;;;9.38;3.17;;;;;;;7.31;100.00;100285.91;5026912;28;20041;-72
2023/12/09 10:28:26;;;;;;;11.55;3.58;;;;;;;7.37;100.00;100283.13;5028423;28;20076;-72
2023/12/09 10:30:55;;;;;;;13.88;4.35;;;;;;;7.45;100.00;100275.03;5027652;28;20045;-72
2023/12/09 10:33:23;;;;;;;13.05;4.13;;;;;;;7.51;100.00;100263.53;5027663;28;20521;-71
2023/12/09 10:35:51;;;;;;;12.13;5.28;;;;;;;7.54;100.00;100263.47;5028320;28;20056;-72
2023/12/09 10:38:19;;;;;;;7.65;3.25;;;;;;;7.54;100.00;100256.44;5047587;28;20041;-72
2023/12/09 10:40:46;;;;;;;90.38;42.75;;;;;;;7.56;100.00;100246.78;5028099;28;20059;-72
2023/12/09 10:43:14;;;;;;;27.20;14.55;;;;;;;7.57;100.00;100251.13;5032594;28;20081;-72
2023/12/09 10:45:43;;;;;;;33.67;21.17;;;;;;;7.63;100.00;100230.88;5026582;28;20052;-72
2023/12/09 10:48:12;;;;;;;28.58;21.08;;;;;;;7.66;100.00;100223.78;5027786;28;20045;-72
2023/12/09 10:50:42;;;;;;;26.50;17.55;;;;;;;7.71;100.00;100218.41;5026978;28;20049;-72
2023/12/09 10:53:12;;;;;;;12.70;5.70;;;;;;;7.73;100.00;100208.72;5026496;28;20689;-72
2023/12/09 10:55:41;;;;;;;10.90;4.28;;;;;;;7.71;100.00;100200.88;5026383;28;20146;-72
2023/12/09 10:58:12;;;;;;;11.25;4.40;;;;;;;7.71;100.00;100192.16;5026104;28;20053;-72
2023/12/09 11:00:41;;;;;;;10.93;5.30;;;;;;;7.68;100.00;100179.13;5026389;28;20049;-72
2023/12/09 11:03:10;;;;;;;14.23;5.38;;;;;;;7.65;100.00;100171.34;5026944;28;20092;-72
2023/12/09 11:05:51;;;;;;;12.27;3.65;;;;;;;7.65;100.00;100155.59;5027764;28;20042;-72
2023/12/09 11:08:20;;;;;;;13.90;5.78;;;;;;;7.66;100.00;100144.19;5024991;28;20045;-72
2023/12/09 11:10:49;;;;;;;12.90;3.22;;;;;;;7.66;100.00;100131.97;5025640;28;20409;-72
2023/12/09 11:13:19;;;;;;;12.77;3.85;;;;;;;7.67;100.00;100131.06;5030555;28;20069;-72
2023/12/09 11:15:47;;;;;;;10.82;2.85;;;;;;;7.72;100.00;100130.91;5026299;28;20033;-72
2023/12/09 11:18:17;;;;;;;16.08;6.60;;;;;;;7.73;100.00;100120.38;5026699;28;20068;-73
2023/12/09 11:20:46;;;;;;;14.63;5.85;;;;;;;7.75;100.00;100107.19;5026948;28;20053;-73
2023/12/09 11:23:14;;;;;;;10.40;5.18;;;;;;;7.77;100.00;100106.25;5023818;28;20124;-72